Terminal Aerodrome Forecast
Issued by NWS Sioux Falls, SD

Home | Current Version | Previous Version | Graphics & Text | Print | Product List | Glossary On
Versions: 1 2 3 4 5 6 7 8 9 10 11 12 13 14 15 16 17 18 19 20 21
000
FTUS43 KFSD 211406 AAB
TAFFSD
TAF AMD
KFSD 211406Z 2114/2212 12006KT P6SM BKN007 BKN012
     FM211700 15006KT P6SM VCTS BKN020CB
     FM211900 05009KT 6SM SHRA OVC035
      TEMPO 2119/2121 4SM TSRA OVC020CB
     FM212200 34011KT P6SM OVC040
     FM220100 35006KT P6SM BKN045
     FM220500 33007KT P6SM SCT150=

USA.gov is the U.S. government's official web portal to all federal, state and local government web resources and services.